createdAt,value
2019-03-27T00:01:38.247Z,16.40
2019-03-27T00:04:10.340Z,16.40
2019-03-27T00:06:40.464Z,16.50
2019-03-27T00:09:10.206Z,16.40
2019-03-27T00:11:41.505Z,16.40
2019-03-27T00:14:10.524Z,16.30
2019-03-27T00:16:40.662Z,16.20
2019-03-27T00:19:11.989Z,16.10
2019-03-27T00:21:42.096Z,16.10
2019-03-27T00:24:11.674Z,16.20
2019-03-27T00:26:41.044Z,16.10
2019-03-27T00:29:11.353Z,16.10
2019-03-27T00:31:43.593Z,16.00
2019-03-27T00:34:13.192Z,15.90
2019-03-27T00:36:42.471Z,16.00
2019-03-27T00:39:11.738Z,16.00
2019-03-27T00:41:41.038Z,15.90
2019-03-27T00:44:10.329Z,15.90
2019-03-27T00:46:40.164Z,15.90
2019-03-27T00:49:09.421Z,15.90
2019-03-27T00:51:38.674Z,15.80
2019-03-27T00:54:08.038Z,15.80
2019-03-27T00:56:38.224Z,15.70
2019-03-27T00:59:07.323Z,15.70
2019-03-27T01:01:36.687Z,15.60
2019-03-27T01:04:07.281Z,15.50
2019-03-27T01:06:39.192Z,15.50
2019-03-27T01:09:08.599Z,15.50
2019-03-27T01:11:43.857Z,15.40
2019-03-27T01:14:17.177Z,15.30
2019-03-27T01:16:49.304Z,15.20
2019-03-27T01:19:28.064Z,15.20
2019-03-27T01:22:00.368Z,15.00
2019-03-27T01:26:55.087Z,14.90
2019-03-27T01:29:37.234Z,14.80
2019-03-27T01:32:09.260Z,14.70
2019-03-27T01:34:39.093Z,14.70
2019-03-27T01:37:15.015Z,14.60
2019-03-27T01:39:54.920Z,14.50
2019-03-27T01:42:25.339Z,14.50
2019-03-27T01:44:54.900Z,14.40
2019-03-27T01:50:13.653Z,14.20
2019-03-27T01:52:52.648Z,14.10
2019-03-27T01:55:28.511Z,14.00
2019-03-27T01:57:58.626Z,13.90
2019-03-27T02:00:32.586Z,13.80
2019-03-27T02:03:18.995Z,13.70
2019-03-27T02:08:34.320Z,13.60
2019-03-27T02:13:54.957Z,13.40
2019-03-27T02:16:25.099Z,13.20
2019-03-27T02:18:55.398Z,13.10
2019-03-27T02:21:27.778Z,13.00
2019-03-27T02:23:57.899Z,12.90
2019-03-27T02:26:32.313Z,12.70
2019-03-27T02:29:15.591Z,12.60
2019-03-27T02:31:45.404Z,12.50
2019-03-27T02:34:14.964Z,12.40
2019-03-27T02:36:48.984Z,12.30
2019-03-27T02:39:19.321Z,12.20
2019-03-27T02:41:49.665Z,12.10
2019-03-27T02:44:19.914Z,12.00
2019-03-27T02:46:50.753Z,11.90
2019-03-27T02:49:22.863Z,11.70
2019-03-27T02:51:53.354Z,11.70
2019-03-27T02:54:25.018Z,11.50
2019-03-27T02:56:55.514Z,11.50
2019-03-27T02:59:25.552Z,11.40
2019-03-27T03:01:54.833Z,11.30
2019-03-27T03:04:27.189Z,11.20
2019-03-27T03:06:57.956Z,11.10
2019-03-27T03:09:28.338Z,11.00
2019-03-27T03:11:58.412Z,10.90
2019-03-27T03:14:27.428Z,10.80
2019-03-27T03:16:56.749Z,10.80
2019-03-27T03:19:26.004Z,10.70
2019-03-27T03:21:54.651Z,10.70
2019-03-27T03:24:24.053Z,10.80
2019-03-27T03:26:52.814Z,10.50
2019-03-27T03:29:21.487Z,10.50
2019-03-27T03:31:50.242Z,10.60
2019-03-27T03:34:19.093Z,10.30
2019-03-27T03:36:47.803Z,10.20
2019-03-27T03:39:17.057Z,10.20
2019-03-27T03:41:46.102Z,10.10
2019-03-27T03:44:14.830Z,10.00
2019-03-27T03:46:58.871Z,9.90
2019-03-27T03:49:14.400Z,9.90
2019-03-27T03:51:43.811Z,9.80
2019-03-27T03:54:12.924Z,9.70
2019-03-27T03:56:42.628Z,9.60
2019-03-27T03:59:13.425Z,9.60
2019-03-27T04:01:45.077Z,9.50
2019-03-27T04:04:15.528Z,9.50
2019-03-27T04:06:44.151Z,9.40
2019-03-27T04:09:13.665Z,9.30
2019-03-27T04:11:43.125Z,9.30
2019-03-27T04:14:11.762Z,9.20
2019-03-27T04:16:41.258Z,9.20
2019-03-27T04:19:09.881Z,9.10
2019-03-27T04:21:38.516Z,9.00
2019-03-27T04:24:07.440Z,9.00
2019-03-27T04:26:36.074Z,8.90
2019-03-27T04:29:04.883Z,9.00
2019-03-27T04:31:34.117Z,8.70
2019-03-27T04:34:03.279Z,8.60
2019-03-27T04:36:32.864Z,8.60
2019-03-27T04:39:02.410Z,8.60
2019-03-27T04:41:31.048Z,8.60
2019-03-27T04:43:59.703Z,8.60
2019-03-27T04:46:28.577Z,8.50
2019-03-27T04:48:57.241Z,8.50
2019-03-27T04:51:25.876Z,8.40
2019-03-27T04:53:54.580Z,8.30
2019-03-27T04:56:23.130Z,8.30
2019-03-27T04:58:52.388Z,8.40
2019-03-27T05:01:22.011Z,8.20
2019-03-27T05:03:51.074Z,8.30
2019-03-27T05:06:19.753Z,8.00
2019-03-27T05:08:48.519Z,7.90
2019-03-27T05:11:17.191Z,8.00
2019-03-27T05:13:45.888Z,7.90
2019-03-27T05:16:14.645Z,7.80
2019-03-27T05:18:44.235Z,7.80
2019-03-27T05:21:12.896Z,7.70
2019-03-27T05:23:43.718Z,8.00
2019-03-27T05:26:12.473Z,7.90
2019-03-27T05:28:41.205Z,7.90
2019-03-27T05:31:09.890Z,8.00
2019-03-27T05:33:38.532Z,7.90
2019-03-27T05:36:07.224Z,7.50
2019-03-27T05:38:36.543Z,7.30
2019-03-27T05:41:05.858Z,7.30
2019-03-27T05:43:35.234Z,7.20
2019-03-27T05:46:05.625Z,7.20
2019-03-27T05:48:35.728Z,7.10
2019-03-27T05:51:04.360Z,7.00
2019-03-27T05:53:33.708Z,7.00
2019-03-27T05:56:02.474Z,6.70
2019-03-27T05:58:33.064Z,6.80
2019-03-27T06:01:02.521Z,6.60
2019-03-27T06:03:31.790Z,6.70
2019-03-27T06:06:01.283Z,6.70
2019-03-27T06:08:30.722Z,6.60
2019-03-27T06:10:59.340Z,6.30
2019-03-27T06:13:28.258Z,6.60
2019-03-27T06:15:57.588Z,6.70
2019-03-27T06:18:26.824Z,6.40
2019-03-27T06:20:56.127Z,6.40
2019-03-27T06:23:25.252Z,6.30
2019-03-27T06:25:54.233Z,6.40
2019-03-27T06:28:23.637Z,6.30
2019-03-27T06:30:52.773Z,6.40
2019-03-27T06:33:21.804Z,6.50
2019-03-27T06:35:51.058Z,6.20
2019-03-27T06:38:20.357Z,6.30
2019-03-27T06:40:49.516Z,6.00
2019-03-27T06:43:19.016Z,6.10
2019-03-27T06:45:48.541Z,6.00
2019-03-27T06:48:26.239Z,6.00
2019-03-27T06:50:48.562Z,5.90
2019-03-27T06:53:18.060Z,6.00
2019-03-27T06:55:47.144Z,5.90
2019-03-27T06:58:16.425Z,5.80
2019-03-27T07:00:45.634Z,5.60
2019-03-27T07:03:15.327Z,5.70
2019-03-27T07:05:44.624Z,5.70
2019-03-27T07:08:13.977Z,5.70
2019-03-27T07:10:42.726Z,5.70
2019-03-27T07:13:11.997Z,5.70
2019-03-27T07:15:41.309Z,5.60
2019-03-27T07:18:10.573Z,5.60
2019-03-27T07:20:41.023Z,5.60
2019-03-27T07:23:11.587Z,5.40
2019-03-27T07:25:40.836Z,5.40
2019-03-27T07:28:10.108Z,5.40
2019-03-27T07:30:39.153Z,5.20
2019-03-27T07:33:09.202Z,5.40
2019-03-27T07:35:38.506Z,5.40
2019-03-27T07:38:07.722Z,5.20
2019-03-27T07:40:36.867Z,5.30
2019-03-27T07:43:06.357Z,5.00
2019-03-27T07:45:35.730Z,5.10
2019-03-27T07:48:05.183Z,5.00
2019-03-27T07:50:34.477Z,5.10
2019-03-27T07:53:04.764Z,5.00
2019-03-27T07:55:33.992Z,4.90
2019-03-27T07:58:02.860Z,4.90
2019-03-27T08:00:32.107Z,4.90
2019-03-27T08:03:01.177Z,5.10
2019-03-27T08:05:30.498Z,4.80
2019-03-27T08:07:59.823Z,4.70
2019-03-27T08:10:29.200Z,4.80
2019-03-27T08:12:59.113Z,4.60
2019-03-27T08:15:28.953Z,4.80
2019-03-27T08:17:58.606Z,4.60
2019-03-27T08:20:28.511Z,4.80
2019-03-27T08:22:57.659Z,4.60
2019-03-27T08:25:26.962Z,4.50
2019-03-27T08:27:56.919Z,4.80
2019-03-27T08:30:25.958Z,4.80
2019-03-27T08:32:58.089Z,4.40
2019-03-27T08:35:27.028Z,4.80
2019-03-27T08:37:56.228Z,4.40
2019-03-27T08:40:25.579Z,4.50
2019-03-27T08:42:54.869Z,4.50
2019-03-27T08:45:23.991Z,4.50
2019-03-27T08:47:54.363Z,4.40
2019-03-27T08:50:23.387Z,4.50
2019-03-27T08:52:52.496Z,4.50
2019-03-27T08:55:21.699Z,4.30
2019-03-27T08:57:50.664Z,4.20
2019-03-27T09:00:22.522Z,4.20
2019-03-27T09:02:51.733Z,4.10
2019-03-27T09:05:22.247Z,4.30
2019-03-27T09:07:51.363Z,4.50
2019-03-27T09:10:20.312Z,4.50
2019-03-27T09:12:49.557Z,4.30
2019-03-27T09:15:18.796Z,4.30
2019-03-27T09:17:48.048Z,4.20
2019-03-27T09:20:17.105Z,4.40
2019-03-27T09:22:46.654Z,4.50
2019-03-27T09:25:15.961Z,4.50
2019-03-27T09:27:45.005Z,4.50
2019-03-27T09:30:14.853Z,4.50
2019-03-27T09:32:44.188Z,4.50
2019-03-27T09:35:13.468Z,4.50
2019-03-27T09:37:43.450Z,4.50
2019-03-27T09:40:12.857Z,4.50
2019-03-27T09:42:42.159Z,4.30
2019-03-27T09:45:13.053Z,4.20
2019-03-27T09:47:42.188Z,4.50
2019-03-27T09:50:11.494Z,4.40
2019-03-27T09:52:40.820Z,4.60
2019-03-27T09:55:10.128Z,4.40
2019-03-27T09:57:39.400Z,4.50
2019-03-27T10:00:09.607Z,4.50
2019-03-27T10:02:38.673Z,4.40
2019-03-27T10:05:08.324Z,4.40
2019-03-27T10:07:37.433Z,4.40
2019-03-27T10:10:06.965Z,4.70
2019-03-27T10:12:35.996Z,4.40
2019-03-27T10:15:08.652Z,4.50
2019-03-27T10:17:37.778Z,4.40
2019-03-27T10:20:07.001Z,4.40
2019-03-27T10:22:36.343Z,4.80
2019-03-27T10:25:10.300Z,4.70
2019-03-27T10:27:39.395Z,4.70
2019-03-27T10:30:09.087Z,4.20
2019-03-27T10:32:38.405Z,4.80
2019-03-27T10:35:08.351Z,4.70
2019-03-27T10:37:37.637Z,4.50
2019-03-27T10:40:08.605Z,4.80
2019-03-27T10:42:38.177Z,4.60
2019-03-27T10:45:07.673Z,4.80
2019-03-27T10:47:36.886Z,4.70
2019-03-27T10:50:17.038Z,4.50
2019-03-27T10:52:37.733Z,4.60
2019-03-27T10:55:07.447Z,4.60
2019-03-27T10:57:36.953Z,4.80
2019-03-27T11:00:09.050Z,4.50
2019-03-27T11:02:38.650Z,4.50
2019-03-27T11:05:08.181Z,4.60
2019-03-27T11:07:37.454Z,4.70
2019-03-27T11:10:08.176Z,4.80
2019-03-27T11:12:37.433Z,4.60
2019-03-27T11:15:07.634Z,4.80
2019-03-27T11:17:37.211Z,4.50
2019-03-27T11:20:07.515Z,4.60
2019-03-27T11:22:38.628Z,4.80
2019-03-27T11:25:08.302Z,4.80
2019-03-27T11:27:37.863Z,4.50
2019-03-27T11:30:11.594Z,4.80
2019-03-27T11:32:40.846Z,4.70
2019-03-27T11:35:10.606Z,4.60
2019-03-27T11:37:39.589Z,4.90
2019-03-27T11:40:09.155Z,4.80
2019-03-27T11:42:39.426Z,4.80
2019-03-27T11:45:08.848Z,4.80
2019-03-27T11:47:37.942Z,5.10
2019-03-27T11:50:11.042Z,4.70
2019-03-27T11:52:40.143Z,4.70
2019-03-27T11:55:09.473Z,4.80
2019-03-27T11:57:38.921Z,4.80
2019-03-27T12:00:10.282Z,4.60
2019-03-27T12:02:40.558Z,4.60
2019-03-27T12:05:10.503Z,4.70
2019-03-27T12:07:39.930Z,4.80
2019-03-27T12:10:09.733Z,4.60
2019-03-27T12:12:38.972Z,4.60
2019-03-27T12:15:08.236Z,4.80
2019-03-27T12:17:37.658Z,4.70
2019-03-27T12:20:08.089Z,4.50
2019-03-27T12:22:37.259Z,4.70
2019-03-27T12:25:06.952Z,4.50
2019-03-27T12:27:36.185Z,4.80
2019-03-27T12:30:08.134Z,4.70
2019-03-27T12:32:37.351Z,4.80
2019-03-27T12:35:06.678Z,4.80
2019-03-27T12:37:36.119Z,4.80
2019-03-27T12:40:11.304Z,4.80
2019-03-27T12:42:37.237Z,4.70
2019-03-27T12:45:08.739Z,5.00
2019-03-27T12:47:37.937Z,5.10
2019-03-27T12:50:07.618Z,5.00
2019-03-27T12:52:37.261Z,5.00
2019-03-27T12:55:07.705Z,5.10
2019-03-27T12:57:38.088Z,5.10
2019-03-27T13:00:09.216Z,5.00
2019-03-27T13:02:39.468Z,4.80
2019-03-27T13:05:08.714Z,5.10
2019-03-27T13:07:49.417Z,4.90
2019-03-27T13:10:11.600Z,4.90
2019-03-27T13:12:40.957Z,5.10
2019-03-27T13:15:10.281Z,5.00
2019-03-27T13:17:39.353Z,4.80
2019-03-27T13:20:10.658Z,4.90
2019-03-27T13:22:40.318Z,4.50
2019-03-27T13:25:09.817Z,4.50
2019-03-27T13:27:39.202Z,4.90
2019-03-27T13:30:13.239Z,4.90
2019-03-27T13:32:42.272Z,4.50
2019-03-27T13:35:11.352Z,5.10
2019-03-27T13:37:40.704Z,5.00
2019-03-27T13:40:10.315Z,4.70
2019-03-27T13:42:39.700Z,4.60
2019-03-27T13:45:10.298Z,4.70
2019-03-27T13:47:39.590Z,4.60
2019-03-27T13:50:13.819Z,4.70
2019-03-27T13:52:43.064Z,4.60
2019-03-27T13:55:12.454Z,4.80
2019-03-27T13:57:42.572Z,4.80
2019-03-27T14:00:14.992Z,4.80
2019-03-27T14:02:44.139Z,4.70
2019-03-27T14:05:13.999Z,4.70
2019-03-27T14:07:43.354Z,4.50
2019-03-27T14:10:12.223Z,4.80
2019-03-27T14:12:41.522Z,4.50
2019-03-27T14:15:10.888Z,4.70
2019-03-27T14:17:40.218Z,4.80
2019-03-27T14:20:09.896Z,4.50
2019-03-27T14:22:39.271Z,4.60
2019-03-27T14:25:08.916Z,4.50
2019-03-27T14:27:38.324Z,5.00
2019-03-27T14:30:10.033Z,5.00
2019-03-27T14:32:40.195Z,5.10
2019-03-27T14:35:10.212Z,5.00
2019-03-27T14:37:39.735Z,5.10
2019-03-27T14:40:09.346Z,5.30
2019-03-27T14:42:38.967Z,5.40
2019-03-27T14:45:08.725Z,5.30
2019-03-27T14:47:38.341Z,5.30
2019-03-27T14:50:08.449Z,5.30
2019-03-27T14:52:38.271Z,5.60
2019-03-27T14:55:10.303Z,5.50
2019-03-27T14:57:39.773Z,5.60
2019-03-27T15:00:10.255Z,5.90
2019-03-27T15:02:39.747Z,6.00
2019-03-27T15:05:09.565Z,5.90
2019-03-27T15:07:38.794Z,6.00
2019-03-27T15:10:09.200Z,6.20
2019-03-27T15:12:38.761Z,6.30
2019-03-27T15:15:08.614Z,6.50
2019-03-27T15:17:38.021Z,6.80
2019-03-27T15:20:09.775Z,6.60
2019-03-27T15:22:38.899Z,6.70
2019-03-27T15:25:08.374Z,6.60
2019-03-27T15:27:37.536Z,7.10
2019-03-27T15:30:12.575Z,7.00
2019-03-27T15:32:40.411Z,7.10
2019-03-27T15:35:09.898Z,7.00
2019-03-27T15:37:39.024Z,7.30
2019-03-27T15:40:08.410Z,7.40
2019-03-27T15:42:37.654Z,7.40
2019-03-27T15:45:09.734Z,7.90
2019-03-27T15:47:39.125Z,7.80
2019-03-27T15:50:09.349Z,8.20
2019-03-27T15:52:38.613Z,8.20
2019-03-27T15:55:08.167Z,8.20
2019-03-27T15:57:37.493Z,8.30
2019-03-27T16:00:08.925Z,8.40
2019-03-27T16:02:38.334Z,8.60
2019-03-27T16:05:07.835Z,8.70
2019-03-27T16:07:36.935Z,8.90
2019-03-27T16:10:07.730Z,9.10
2019-03-27T16:12:37.125Z,9.20
2019-03-27T16:15:09.461Z,9.30
2019-03-27T16:17:38.661Z,9.40
2019-03-27T16:20:08.100Z,9.60
2019-03-27T16:22:49.887Z,9.70
2019-03-27T16:25:08.387Z,9.80
2019-03-27T16:27:37.685Z,9.80
2019-03-27T16:30:07.667Z,10.00
2019-03-27T16:32:36.897Z,10.10
2019-03-27T16:35:07.309Z,10.20
2019-03-27T16:37:36.592Z,10.20
2019-03-27T16:40:07.584Z,10.30
2019-03-27T16:42:36.616Z,10.30
2019-03-27T16:45:08.765Z,10.40
2019-03-27T16:47:38.155Z,10.50
2019-03-27T16:50:07.993Z,10.60
2019-03-27T16:52:38.339Z,10.80
2019-03-27T16:55:08.267Z,11.00
2019-03-27T16:57:37.617Z,11.30
2019-03-27T17:00:08.564Z,11.50
2019-03-27T17:02:37.725Z,11.70
2019-03-27T17:05:07.537Z,11.80
2019-03-27T17:07:36.594Z,11.90
2019-03-27T17:10:07.548Z,12.00
2019-03-27T17:12:36.565Z,12.10
2019-03-27T17:15:07.629Z,12.10
2019-03-27T17:17:37.060Z,12.20
2019-03-27T17:20:10.364Z,12.30
2019-03-27T17:22:39.720Z,12.30
2019-03-27T17:25:09.053Z,12.40
2019-03-27T17:27:38.241Z,12.50
2019-03-27T17:30:09.336Z,12.60
2019-03-27T17:32:38.837Z,12.70
2019-03-27T17:35:08.294Z,12.80
2019-03-27T17:37:37.777Z,12.90
2019-03-27T17:40:08.214Z,13.00
2019-03-27T17:42:37.530Z,13.20
2019-03-27T17:45:07.461Z,13.30
2019-03-27T17:47:43.327Z,13.30
2019-03-27T17:50:13.733Z,13.40
2019-03-27T17:52:43.172Z,13.40
2019-03-27T17:55:12.435Z,13.40
2019-03-27T17:57:41.665Z,13.50
2019-03-27T18:00:14.519Z,13.50
2019-03-27T18:02:44.045Z,13.60
2019-03-27T18:05:13.528Z,13.60
2019-03-27T18:07:42.885Z,13.60
2019-03-27T18:10:12.277Z,13.60
2019-03-27T18:12:41.514Z,13.60
2019-03-27T18:15:11.226Z,13.50
2019-03-27T18:17:40.702Z,13.40
2019-03-27T18:20:09.857Z,13.30
2019-03-27T18:22:39.410Z,13.30
2019-03-27T18:25:08.858Z,13.20
2019-03-27T18:27:37.909Z,13.10
2019-03-27T18:30:07.918Z,13.20
2019-03-27T18:32:37.392Z,13.20
2019-03-27T18:35:07.795Z,13.20
2019-03-27T18:37:36.973Z,13.20
2019-03-27T18:40:07.235Z,13.20
2019-03-27T18:42:36.793Z,13.20
2019-03-27T18:45:09.698Z,13.00
2019-03-27T18:47:39.074Z,13.00
2019-03-27T18:50:08.395Z,13.10
2019-03-27T18:52:37.809Z,13.00
2019-03-27T18:55:07.210Z,13.00
2019-03-27T18:57:36.468Z,12.90
2019-03-27T19:00:09.337Z,12.80
2019-03-27T19:02:38.699Z,12.70
2019-03-27T19:05:08.066Z,12.80
2019-03-27T19:07:38.318Z,12.80
2019-03-27T19:10:08.252Z,12.70
2019-03-27T19:12:37.512Z,12.70
2019-03-27T19:15:08.159Z,12.60
2019-03-27T19:17:37.545Z,12.50
2019-03-27T19:20:07.135Z,12.40
2019-03-27T19:22:39.284Z,12.30
2019-03-27T19:25:08.399Z,12.10
2019-03-27T19:27:37.654Z,11.90
2019-03-27T19:30:10.057Z,11.80
2019-03-27T19:32:40.927Z,11.60
2019-03-27T19:35:11.569Z,11.50
2019-03-27T19:37:40.863Z,11.20
2019-03-27T19:40:11.709Z,10.90
2019-03-27T19:42:40.860Z,10.60
2019-03-27T19:45:10.078Z,10.30
2019-03-27T19:47:39.484Z,10.10
2019-03-27T19:50:08.793Z,9.90
2019-03-27T19:52:38.161Z,9.80
2019-03-27T19:55:07.869Z,9.80
2019-03-27T19:57:37.240Z,9.80
2019-03-27T20:00:08.692Z,9.80
2019-03-27T20:02:37.916Z,9.90
2019-03-27T20:05:08.034Z,10.00
2019-03-27T20:07:37.245Z,10.10
2019-03-27T20:10:07.331Z,10.20
2019-03-27T20:12:36.503Z,10.40
2019-03-27T20:15:12.110Z,10.50
2019-03-27T20:17:38.777Z,10.80
2019-03-27T20:20:09.271Z,10.70
2019-03-27T20:22:38.570Z,10.80
2019-03-27T20:25:10.114Z,10.90
2019-03-27T20:27:39.407Z,11.00
2019-03-27T20:30:14.029Z,11.00
2019-03-27T20:32:43.225Z,11.00
2019-03-27T20:35:12.496Z,10.80
2019-03-27T20:37:41.664Z,10.60
2019-03-27T20:40:10.821Z,10.20
2019-03-27T20:42:40.132Z,10.20
2019-03-27T20:45:09.855Z,10.00
2019-03-27T20:47:38.936Z,9.90
2019-03-27T20:50:08.641Z,9.80
2019-03-27T20:52:38.200Z,9.80
2019-03-27T20:55:07.785Z,9.80
2019-03-27T20:57:37.455Z,9.80
2019-03-27T21:00:08.405Z,9.90
2019-03-27T21:02:37.814Z,10.00
2019-03-27T21:05:08.257Z,9.80
2019-03-27T21:07:38.237Z,9.90
2019-03-27T21:10:08.033Z,9.80
2019-03-27T21:12:37.445Z,9.70
2019-03-27T21:15:08.652Z,9.80
2019-03-27T21:17:37.991Z,9.60
2019-03-27T21:20:07.742Z,9.50
2019-03-27T21:22:37.034Z,9.50
2019-03-27T21:25:08.996Z,9.60
2019-03-27T21:27:37.854Z,9.60
2019-03-27T21:30:12.820Z,9.70
2019-03-27T21:32:41.939Z,9.80
2019-03-27T21:35:11.069Z,9.90
2019-03-27T21:37:40.402Z,9.90
2019-03-27T21:40:09.953Z,9.90
2019-03-27T21:42:40.067Z,9.70
2019-03-27T21:45:10.051Z,9.80
2019-03-27T21:47:39.183Z,9.80
2019-03-27T21:50:08.491Z,10.20
2019-03-27T21:52:37.787Z,9.90
2019-03-27T21:55:07.513Z,9.90
2019-03-27T21:57:36.730Z,9.90
2019-03-27T22:00:09.590Z,9.90
2019-03-27T22:02:38.887Z,9.90
2019-03-27T22:05:07.982Z,10.00
2019-03-27T22:07:37.305Z,10.10
2019-03-27T22:10:10.576Z,10.20
2019-03-27T22:12:39.303Z,10.20
2019-03-27T22:15:08.981Z,10.20
2019-03-27T22:17:38.140Z,10.20
2019-03-27T22:20:08.599Z,10.20
2019-03-27T22:22:37.946Z,10.00
2019-03-27T22:25:08.123Z,10.10
2019-03-27T22:27:37.953Z,10.00
2019-03-27T22:30:11.888Z,10.00
2019-03-27T22:32:41.292Z,9.90
2019-03-27T22:35:11.344Z,9.90
2019-03-27T22:37:40.544Z,10.00
2019-03-27T22:40:10.058Z,9.70
2019-03-27T22:42:39.261Z,10.10
2019-03-27T22:45:14.205Z,9.90
2019-03-27T22:47:42.869Z,10.00
2019-03-27T22:50:13.382Z,10.20
2019-03-27T22:52:43.033Z,10.40
2019-03-27T22:55:13.677Z,10.50
2019-03-27T22:57:43.040Z,10.60
2019-03-27T23:00:13.124Z,10.50
2019-03-27T23:02:42.845Z,10.40
2019-03-27T23:05:11.848Z,10.50
2019-03-27T23:07:41.256Z,10.40
2019-03-27T23:10:10.553Z,10.30
2019-03-27T23:12:39.770Z,10.10
2019-03-27T23:15:11.690Z,9.90
2019-03-27T23:17:41.200Z,10.00
2019-03-27T23:20:10.402Z,10.10
2019-03-27T23:22:39.601Z,10.20
2019-03-27T23:25:09.118Z,10.20
2019-03-27T23:27:38.086Z,10.20
2019-03-27T23:30:07.685Z,10.20
2019-03-27T23:32:36.733Z,10.20
2019-03-27T23:35:08.893Z,10.10
2019-03-27T23:37:38.046Z,10.10
2019-03-27T23:40:12.878Z,10.10
2019-03-27T23:42:42.889Z,10.10
2019-03-27T23:45:12.205Z,10.00
2019-03-27T23:47:41.201Z,10.10
2019-03-27T23:50:10.611Z,9.90
2019-03-27T23:52:40.098Z,9.80
2019-03-27T23:55:09.376Z,9.80
2019-03-27T23:57:38.508Z,9.70
